sensor_id;sensor_type;location;lat;lon;timestamp;temperature;humidity
76751;SHT31;65216;51.090;-115.352;2023-05-24T00:02:26;23.36;29.82
76751;SHT31;65216;51.090;-115.352;2023-05-24T00:04:53;23.35;29.79
76751;SHT31;65216;51.090;-115.352;2023-05-24T00:07:20;23.32;29.83
76751;SHT31;65216;51.090;-115.352;2023-05-24T00:09:47;23.30;29.86
76751;SHT31;65216;51.090;-115.352;2023-05-24T00:12:15;23.27;29.91
76751;SHT31;65216;51.090;-115.352;2023-05-24T00:14:41;23.25;30.01
76751;SHT31;65216;51.090;-115.352;2023-05-24T00:17:09;23.24;30.09
76751;SHT31;65216;51.090;-115.352;2023-05-24T00:19:40;23.21;30.43
76751;SHT31;65216;51.090;-115.352;2023-05-24T00:23:03;23.17;30.77
76751;SHT31;65216;51.090;-115.352;2023-05-24T00:25:34;23.15;30.90
76751;SHT31;65216;51.090;-115.352;2023-05-24T00:28:01;23.14;31.08
76751;SHT31;65216;51.090;-115.352;2023-05-24T00:30:29;23.14;31.25
76751;SHT31;65216;51.090;-115.352;2023-05-24T00:32:56;23.15;31.53
76751;SHT31;65216;51.090;-115.352;2023-05-24T00:35:23;23.16;31.60
76751;SHT31;65216;51.090;-115.352;2023-05-24T00:37:50;23.18;31.74
76751;SHT31;65216;51.090;-115.352;2023-05-24T00:40:17;23.20;31.87
76751;SHT31;65216;51.090;-115.352;2023-05-24T00:42:44;23.24;31.95
76751;SHT31;65216;51.090;-115.352;2023-05-24T00:45:11;23.26;32.04
76751;SHT31;65216;51.090;-115.352;2023-05-24T00:47:42;23.27;32.02
76751;SHT31;65216;51.090;-115.352;2023-05-24T00:50:13;23.29;32.05
76751;SHT31;65216;51.090;-115.352;2023-05-24T00:52:41;23.31;32.01
76751;SHT31;65216;51.090;-115.352;2023-05-24T00:55:09;23.34;32.01
76751;SHT31;65216;51.090;-115.352;2023-05-24T00:57:38;23.34;31.99
76751;SHT31;65216;51.090;-115.352;2023-05-24T01:00:06;23.34;31.99
76751;SHT31;65216;51.090;-115.352;2023-05-24T01:02:35;23.34;31.90
76751;SHT31;65216;51.090;-115.352;2023-05-24T01:05:05;23.34;31.84
76751;SHT31;65216;51.090;-115.352;2023-05-24T01:13:30;23.32;31.83
76751;SHT31;65216;51.090;-115.352;2023-05-24T01:19:48;23.35;31.84
76751;SHT31;65216;51.090;-115.352;2023-05-24T01:28:04;23.38;31.93
76751;SHT31;65216;51.090;-115.352;2023-05-24T01:30:33;23.41;32.05
76751;SHT31;65216;51.090;-115.352;2023-05-24T01:33:05;23.44;32.12
76751;SHT31;65216;51.090;-115.352;2023-05-24T01:35:36;23.47;32.19
76751;SHT31;65216;51.090;-115.352;2023-05-24T01:38:07;23.49;32.29
76751;SHT31;65216;51.090;-115.352;2023-05-24T01:40:38;23.50;32.27
76751;SHT31;65216;51.090;-115.352;2023-05-24T01:43:23;23.49;32.30
76751;SHT31;65216;51.090;-115.352;2023-05-24T01:46:10;23.48;32.24
76751;SHT31;65216;51.090;-115.352;2023-05-24T01:52:05;23.40;32.21
76751;SHT31;65216;51.090;-115.352;2023-05-24T01:54:37;23.37;32.28
76751;SHT31;65216;51.090;-115.352;2023-05-24T01:57:10;23.35;32.25
76751;SHT31;65216;51.090;-115.352;2023-05-24T01:59:41;23.32;32.32
76751;SHT31;65216;51.090;-115.352;2023-05-24T02:02:10;23.30;32.35
76751;SHT31;65216;51.090;-115.352;2023-05-24T02:04:38;23.29;32.48
76751;SHT31;65216;51.090;-115.352;2023-05-24T02:07:05;23.26;32.52
76751;SHT31;65216;51.090;-115.352;2023-05-24T02:09:33;23.25;32.48
76751;SHT31;65216;51.090;-115.352;2023-05-24T02:12:00;23.23;32.60
76751;SHT31;65216;51.090;-115.352;2023-05-24T02:14:28;23.20;32.70
76751;SHT31;65216;51.090;-115.352;2023-05-24T02:16:56;23.18;32.78
76751;SHT31;65216;51.090;-115.352;2023-05-24T02:19:24;23.16;32.77
76751;SHT31;65216;51.090;-115.352;2023-05-24T02:21:52;23.14;32.78
76751;SHT31;65216;51.090;-115.352;2023-05-24T02:24:19;23.12;32.80
76751;SHT31;65216;51.090;-115.352;2023-05-24T02:26:51;23.10;32.78
76751;SHT31;65216;51.090;-115.352;2023-05-24T02:29:21;23.08;32.86
76751;SHT31;65216;51.090;-115.352;2023-05-24T02:31:49;23.05;32.86
76751;SHT31;65216;51.090;-115.352;2023-05-24T02:34:23;23.03;32.82
76751;SHT31;65216;51.090;-115.352;2023-05-24T02:36:50;23.01;32.84
76751;SHT31;65216;51.090;-115.352;2023-05-24T02:39:20;22.99;32.86
76751;SHT31;65216;51.090;-115.352;2023-05-24T02:41:50;22.98;32.87
76751;SHT31;65216;51.090;-115.352;2023-05-24T02:44:17;22.96;33.00
76751;SHT31;65216;51.090;-115.352;2023-05-24T02:46:50;22.95;33.01
76751;SHT31;65216;51.090;-115.352;2023-05-24T02:49:23;22.94;32.98
76751;SHT31;65216;51.090;-115.352;2023-05-24T02:51:51;22.92;32.99
76751;SHT31;65216;51.090;-115.352;2023-05-24T02:54:18;22.91;33.12
76751;SHT31;65216;51.090;-115.352;2023-05-24T02:56:46;22.87;33.23
76751;SHT31;65216;51.090;-115.352;2023-05-24T02:59:13;22.86;33.20
76751;SHT31;65216;51.090;-115.352;2023-05-24T03:01:40;22.85;33.10
76751;SHT31;65216;51.090;-115.352;2023-05-24T03:04:09;22.82;33.16
76751;SHT31;65216;51.090;-115.352;2023-05-24T03:06:36;22.81;33.22
76751;SHT31;65216;51.090;-115.352;2023-05-24T03:09:03;22.80;33.23
76751;SHT31;65216;51.090;-115.352;2023-05-24T03:11:33;22.77;33.39
76751;SHT31;65216;51.090;-115.352;2023-05-24T03:14:01;22.78;33.43
76751;SHT31;65216;51.090;-115.352;2023-05-24T03:16:39;22.76;33.42
76751;SHT31;65216;51.090;-115.352;2023-05-24T03:22:52;22.73;33.33
76751;SHT31;65216;51.090;-115.352;2023-05-24T03:25:39;22.72;33.33
76751;SHT31;65216;51.090;-115.352;2023-05-24T03:28:06;22.71;33.36
76751;SHT31;65216;51.090;-115.352;2023-05-24T03:30:36;22.71;33.45
76751;SHT31;65216;51.090;-115.352;2023-05-24T03:33:03;22.69;33.40
76751;SHT31;65216;51.090;-115.352;2023-05-24T03:35:31;22.69;33.39
76751;SHT31;65216;51.090;-115.352;2023-05-24T03:38:00;22.68;33.33
76751;SHT31;65216;51.090;-115.352;2023-05-24T03:40:27;22.67;33.28
76751;SHT31;65216;51.090;-115.352;2023-05-24T03:42:58;22.64;33.19
76751;SHT31;65216;51.090;-115.352;2023-05-24T03:45:25;22.63;33.09
76751;SHT31;65216;51.090;-115.352;2023-05-24T03:47:52;22.63;33.05
76751;SHT31;65216;51.090;-115.352;2023-05-24T03:50:19;22.61;33.01
76751;SHT31;65216;51.090;-115.352;2023-05-24T03:52:46;22.59;32.96
76751;SHT31;65216;51.090;-115.352;2023-05-24T03:55:14;22.59;32.97
76751;SHT31;65216;51.090;-115.352;2023-05-24T03:57:43;22.56;32.99
76751;SHT31;65216;51.090;-115.352;2023-05-24T04:00:11;22.56;32.94
76751;SHT31;65216;51.090;-115.352;2023-05-24T04:02:39;22.54;32.85
76751;SHT31;65216;51.090;-115.352;2023-05-24T04:05:07;22.52;32.79
76751;SHT31;65216;51.090;-115.352;2023-05-24T04:07:38;22.50;32.69
76751;SHT31;65216;51.090;-115.352;2023-05-24T04:10:06;22.47;32.65
76751;SHT31;65216;51.090;-115.352;2023-05-24T04:12:34;22.44;32.58
76751;SHT31;65216;51.090;-115.352;2023-05-24T04:15:00;22.42;32.50
76751;SHT31;65216;51.090;-115.352;2023-05-24T04:17:31;22.41;32.49
76751;SHT31;65216;51.090;-115.352;2023-05-24T04:19:59;22.38;32.43
76751;SHT31;65216;51.090;-115.352;2023-05-24T04:22:26;22.36;32.40
76751;SHT31;65216;51.090;-115.352;2023-05-24T04:24:54;22.34;32.38
76751;SHT31;65216;51.090;-115.352;2023-05-24T04:27:24;22.33;32.40
76751;SHT31;65216;51.090;-115.352;2023-05-24T04:29:51;22.32;32.35
76751;SHT31;65216;51.090;-115.352;2023-05-24T04:32:21;22.30;32.33
76751;SHT31;65216;51.090;-115.352;2023-05-24T04:34:54;22.28;32.33
76751;SHT31;65216;51.090;-115.352;2023-05-24T04:37:22;22.27;32.29
76751;SHT31;65216;51.090;-115.352;2023-05-24T04:39:52;22.26;32.30
76751;SHT31;65216;51.090;-115.352;2023-05-24T04:42:18;22.25;32.31
76751;SHT31;65216;51.090;-115.352;2023-05-24T04:44:49;22.23;32.31
76751;SHT31;65216;51.090;-115.352;2023-05-24T04:47:18;22.23;32.30
76751;SHT31;65216;51.090;-115.352;2023-05-24T04:49:45;22.21;32.29
76751;SHT31;65216;51.090;-115.352;2023-05-24T04:52:12;22.20;32.29
76751;SHT31;65216;51.090;-115.352;2023-05-24T04:54:39;22.18;32.24
76751;SHT31;65216;51.090;-115.352;2023-05-24T04:57:06;22.17;32.25
76751;SHT31;65216;51.090;-115.352;2023-05-24T04:59:33;22.15;32.24
76751;SHT31;65216;51.090;-115.352;2023-05-24T05:02:01;22.14;32.22
76751;SHT31;65216;51.090;-115.352;2023-05-24T05:04:28;22.13;32.22
76751;SHT31;65216;51.090;-115.352;2023-05-24T05:06:54;22.10;32.25
76751;SHT31;65216;51.090;-115.352;2023-05-24T05:09:22;22.10;32.22
76751;SHT31;65216;51.090;-115.352;2023-05-24T05:11:49;22.09;32.23
76751;SHT31;65216;51.090;-115.352;2023-05-24T05:14:16;22.08;32.27
76751;SHT31;65216;51.090;-115.352;2023-05-24T05:16:45;22.07;32.30
76751;SHT31;65216;51.090;-115.352;2023-05-24T05:19:12;22.06;32.30
76751;SHT31;65216;51.090;-115.352;2023-05-24T05:21:39;22.05;32.35
76751;SHT31;65216;51.090;-115.352;2023-05-24T05:24:06;22.04;32.39
76751;SHT31;65216;51.090;-115.352;2023-05-24T05:26:34;22.03;32.43
76751;SHT31;65216;51.090;-115.352;2023-05-24T05:29:01;22.03;32.50
76751;SHT31;65216;51.090;-115.352;2023-05-24T05:31:28;22.03;32.57
76751;SHT31;65216;51.090;-115.352;2023-05-24T05:33:55;22.02;32.72
76751;SHT31;65216;51.090;-115.352;2023-05-24T05:36:22;22.01;32.80
76751;SHT31;65216;51.090;-115.352;2023-05-24T05:38:49;22.01;32.83
76751;SHT31;65216;51.090;-115.352;2023-05-24T05:41:19;22.00;32.87
76751;SHT31;65216;51.090;-115.352;2023-05-24T05:43:46;21.99;32.84
76751;SHT31;65216;51.090;-115.352;2023-05-24T05:46:13;21.99;32.89
76751;SHT31;65216;51.090;-115.352;2023-05-24T05:48:40;21.97;32.89
76751;SHT31;65216;51.090;-115.352;2023-05-24T05:51:07;21.96;32.92
76751;SHT31;65216;51.090;-115.352;2023-05-24T05:53:34;21.95;32.91
76751;SHT31;65216;51.090;-115.352;2023-05-24T05:56:01;21.95;32.92
76751;SHT31;65216;51.090;-115.352;2023-05-24T05:58:28;21.94;32.93
76751;SHT31;65216;51.090;-115.352;2023-05-24T06:00:55;21.94;32.93
76751;SHT31;65216;51.090;-115.352;2023-05-24T06:03:23;21.93;32.97
76751;SHT31;65216;51.090;-115.352;2023-05-24T06:05:50;21.91;32.98
76751;SHT31;65216;51.090;-115.352;2023-05-24T06:08:17;21.90;32.98
76751;SHT31;65216;51.090;-115.352;2023-05-24T06:10:47;21.89;33.00
76751;SHT31;65216;51.090;-115.352;2023-05-24T06:13:14;21.89;33.00
76751;SHT31;65216;51.090;-115.352;2023-05-24T06:15:41;21.89;33.00
76751;SHT31;65216;51.090;-115.352;2023-05-24T06:18:08;21.88;33.00
76751;SHT31;65216;51.090;-115.352;2023-05-24T06:20:35;21.88;33.24
76751;SHT31;65216;51.090;-115.352;2023-05-24T06:23:03;21.87;33.25
76751;SHT31;65216;51.090;-115.352;2023-05-24T06:25:30;21.86;33.07
76751;SHT31;65216;51.090;-115.352;2023-05-24T06:27:57;21.86;33.10
76751;SHT31;65216;51.090;-115.352;2023-05-24T06:30:24;21.84;33.34
76751;SHT31;65216;51.090;-115.352;2023-05-24T06:32:51;21.84;33.26
76751;SHT31;65216;51.090;-115.352;2023-05-24T06:35:18;21.82;33.14
76751;SHT31;65216;51.090;-115.352;2023-05-24T06:37:45;21.82;33.10
76751;SHT31;65216;51.090;-115.352;2023-05-24T06:40:15;21.82;33.10
76751;SHT31;65216;51.090;-115.352;2023-05-24T06:42:44;21.80;33.10
76751;SHT31;65216;51.090;-115.352;2023-05-24T06:45:11;21.80;33.03
76751;SHT31;65216;51.090;-115.352;2023-05-24T06:47:40;21.79;33.01
76751;SHT31;65216;51.090;-115.352;2023-05-24T06:50:07;21.78;32.99
76751;SHT31;65216;51.090;-115.352;2023-05-24T06:52:41;21.79;32.94
76751;SHT31;65216;51.090;-115.352;2023-05-24T06:55:08;21.78;32.88
76751;SHT31;65216;51.090;-115.352;2023-05-24T06:57:35;21.77;32.90
76751;SHT31;65216;51.090;-115.352;2023-05-24T07:00:02;21.77;33.33
76751;SHT31;65216;51.090;-115.352;2023-05-24T07:02:39;21.77;33.73
76751;SHT31;65216;51.090;-115.352;2023-05-24T07:05:09;21.74;33.98
76751;SHT31;65216;51.090;-115.352;2023-05-24T07:07:42;21.73;33.93
76751;SHT31;65216;51.090;-115.352;2023-05-24T07:10:09;21.73;33.69
76751;SHT31;65216;51.090;-115.352;2023-05-24T07:12:38;21.73;33.51
76751;SHT31;65216;51.090;-115.352;2023-05-24T07:15:05;21.74;33.49
76751;SHT31;65216;51.090;-115.352;2023-05-24T07:17:34;21.72;33.50
76751;SHT31;65216;51.090;-115.352;2023-05-24T07:20:01;21.71;33.42
76751;SHT31;65216;51.090;-115.352;2023-05-24T07:22:31;21.70;33.57
76751;SHT31;65216;51.090;-115.352;2023-05-24T07:24:58;21.69;33.61
76751;SHT31;65216;51.090;-115.352;2023-05-24T07:27:25;21.69;33.58
76751;SHT31;65216;51.090;-115.352;2023-05-24T07:29:52;21.67;33.51
76751;SHT31;65216;51.090;-115.352;2023-05-24T07:32:19;21.67;33.48
76751;SHT31;65216;51.090;-115.352;2023-05-24T07:34:46;21.65;33.40
76751;SHT31;65216;51.090;-115.352;2023-05-24T07:37:13;21.65;33.37
76751;SHT31;65216;51.090;-115.352;2023-05-24T07:39:42;21.65;33.31
76751;SHT31;65216;51.090;-115.352;2023-05-24T07:42:10;21.64;33.29
76751;SHT31;65216;51.090;-115.352;2023-05-24T07:44:41;21.62;33.27
76751;SHT31;65216;51.090;-115.352;2023-05-24T07:47:13;21.61;33.22
76751;SHT31;65216;51.090;-115.352;2023-05-24T07:49:40;21.60;33.15
76751;SHT31;65216;51.090;-115.352;2023-05-24T07:52:10;21.61;33.07
76751;SHT31;65216;51.090;-115.352;2023-05-24T07:54:37;21.61;33.04
76751;SHT31;65216;51.090;-115.352;2023-05-24T07:57:07;21.60;33.00
76751;SHT31;65216;51.090;-115.352;2023-05-24T07:59:34;21.59;32.92
76751;SHT31;65216;51.090;-115.352;2023-05-24T08:02:01;21.58;32.89
76751;SHT31;65216;51.090;-115.352;2023-05-24T08:04:30;21.57;32.86
76751;SHT31;65216;51.090;-115.352;2023-05-24T08:06:58;21.56;32.84
76751;SHT31;65216;51.090;-115.352;2023-05-24T08:09:29;21.55;32.80
76751;SHT31;65216;51.090;-115.352;2023-05-24T08:12:01;21.54;32.80
76751;SHT31;65216;51.090;-115.352;2023-05-24T08:14:30;21.53;32.77
76751;SHT31;65216;51.090;-115.352;2023-05-24T08:17:00;21.53;32.70
76751;SHT31;65216;51.090;-115.352;2023-05-24T08:19:27;21.52;32.70
76751;SHT31;65216;51.090;-115.352;2023-05-24T08:22:00;21.52;32.63
76751;SHT31;65216;51.090;-115.352;2023-05-24T08:24:32;21.50;32.61
76751;SHT31;65216;51.090;-115.352;2023-05-24T08:26:59;21.51;32.60
76751;SHT31;65216;51.090;-115.352;2023-05-24T08:29:28;21.50;32.60
76751;SHT31;65216;51.090;-115.352;2023-05-24T08:31:58;21.49;32.53
76751;SHT31;65216;51.090;-115.352;2023-05-24T08:34:28;21.49;32.51
76751;SHT31;65216;51.090;-115.352;2023-05-24T08:36:58;21.49;32.50
76751;SHT31;65216;51.090;-115.352;2023-05-24T08:39:25;21.49;32.47
76751;SHT31;65216;51.090;-115.352;2023-05-24T08:41:53;21.48;32.42
76751;SHT31;65216;51.090;-115.352;2023-05-24T08:44:21;21.48;32.40
76751;SHT31;65216;51.090;-115.352;2023-05-24T08:46:54;21.46;32.41
76751;SHT31;65216;51.090;-115.352;2023-05-24T08:49:23;21.47;32.40
76751;SHT31;65216;51.090;-115.352;2023-05-24T08:51:51;21.44;32.39
76751;SHT31;65216;51.090;-115.352;2023-05-24T08:54:18;21.44;32.40
76751;SHT31;65216;51.090;-115.352;2023-05-24T08:56:47;21.45;32.37
76751;SHT31;65216;51.090;-115.352;2023-05-24T08:59:15;21.45;32.34
76751;SHT31;65216;51.090;-115.352;2023-05-24T09:01:42;21.45;32.36
76751;SHT31;65216;51.090;-115.352;2023-05-24T09:04:14;21.43;32.30
76751;SHT31;65216;51.090;-115.352;2023-05-24T09:06:42;21.43;32.34
76751;SHT31;65216;51.090;-115.352;2023-05-24T09:09:12;21.42;32.31
76751;SHT31;65216;51.090;-115.352;2023-05-24T09:11:43;21.42;32.30
76751;SHT31;65216;51.090;-115.352;2023-05-24T09:14:14;21.41;32.31
76751;SHT31;65216;51.090;-115.352;2023-05-24T09:16:44;21.40;32.30
76751;SHT31;65216;51.090;-115.352;2023-05-24T09:19:11;21.38;32.32
76751;SHT31;65216;51.090;-115.352;2023-05-24T09:21:39;21.38;32.33
76751;SHT31;65216;51.090;-115.352;2023-05-24T09:24:07;21.38;32.33
76751;SHT31;65216;51.090;-115.352;2023-05-24T09:26:36;21.38;32.33
76751;SHT31;65216;51.090;-115.352;2023-05-24T09:29:07;21.37;32.32
76751;SHT31;65216;51.090;-115.352;2023-05-24T09:31:35;21.36;32.32
76751;SHT31;65216;51.090;-115.352;2023-05-24T09:34:06;21.35;32.30
76751;SHT31;65216;51.090;-115.352;2023-05-24T09:36:39;21.36;32.33
76751;SHT31;65216;51.090;-115.352;2023-05-24T09:39:10;21.36;32.30
76751;SHT31;65216;51.090;-115.352;2023-05-24T09:41:37;21.36;32.31
76751;SHT31;65216;51.090;-115.352;2023-05-24T09:44:11;21.35;32.34
76751;SHT31;65216;51.090;-115.352;2023-05-24T09:46:40;21.34;32.34
76751;SHT31;65216;51.090;-115.352;2023-05-24T09:49:07;21.34;32.37
76751;SHT31;65216;51.090;-115.352;2023-05-24T09:51:37;21.34;32.40
76751;SHT31;65216;51.090;-115.352;2023-05-24T09:54:04;21.34;32.39
76751;SHT31;65216;51.090;-115.352;2023-05-24T09:56:35;21.33;32.40
76751;SHT31;65216;51.090;-115.352;2023-05-24T09:59:07;21.33;32.40
76751;SHT31;65216;51.090;-115.352;2023-05-24T10:01:34;21.33;32.40
76751;SHT31;65216;51.090;-115.352;2023-05-24T10:04:02;21.31;32.40
76751;SHT31;65216;51.090;-115.352;2023-05-24T10:06:34;21.32;32.41
76751;SHT31;65216;51.090;-115.352;2023-05-24T10:09:03;21.31;32.40
76751;SHT31;65216;51.090;-115.352;2023-05-24T10:11:34;21.32;32.40
76751;SHT31;65216;51.090;-115.352;2023-05-24T10:14:05;21.31;32.44
76751;SHT31;65216;51.090;-115.352;2023-05-24T10:16:34;21.29;32.40
76751;SHT31;65216;51.090;-115.352;2023-05-24T10:19:03;21.28;32.41
76751;SHT31;65216;51.090;-115.352;2023-05-24T10:21:31;21.26;32.40
76751;SHT31;65216;51.090;-115.352;2023-05-24T10:24:04;21.25;32.41
76751;SHT31;65216;51.090;-115.352;2023-05-24T10:26:36;21.25;32.41
76751;SHT31;65216;51.090;-115.352;2023-05-24T10:29:07;21.24;32.39
76751;SHT31;65216;51.090;-115.352;2023-05-24T10:31:45;21.23;32.42
76751;SHT31;65216;51.090;-115.352;2023-05-24T10:34:12;21.20;32.43
76751;SHT31;65216;51.090;-115.352;2023-05-24T10:36:42;21.20;32.40
76751;SHT31;65216;51.090;-115.352;2023-05-24T10:39:10;21.20;32.40
76751;SHT31;65216;51.090;-115.352;2023-05-24T10:41:38;21.20;32.40
76751;SHT31;65216;51.090;-115.352;2023-05-24T10:44:11;21.19;32.39
76751;SHT31;65216;51.090;-115.352;2023-05-24T10:49:56;21.18;32.31
76751;SHT31;65216;51.090;-115.352;2023-05-24T10:52:36;21.18;32.32
76751;SHT31;65216;51.090;-115.352;2023-05-24T10:55:07;21.17;32.30
76751;SHT31;65216;51.090;-115.352;2023-05-24T10:57:38;21.17;32.30
76751;SHT31;65216;51.090;-115.352;2023-05-24T11:05:58;21.13;32.24
76751;SHT31;65216;51.090;-115.352;2023-05-24T11:11:09;21.11;32.23
76751;SHT31;65216;51.090;-115.352;2023-05-24T11:13:38;21.10;32.22
76751;SHT31;65216;51.090;-115.352;2023-05-24T11:16:06;21.09;32.25
76751;SHT31;65216;51.090;-115.352;2023-05-24T11:18:33;21.08;32.22
76751;SHT31;65216;51.090;-115.352;2023-05-24T11:21:07;21.06;32.24
76751;SHT31;65216;51.090;-115.352;2023-05-24T11:23:34;21.07;32.25
76751;SHT31;65216;51.090;-115.352;2023-05-24T11:26:05;21.07;32.22
76751;SHT31;65216;51.090;-115.352;2023-05-24T11:28:35;21.07;32.21
76751;SHT31;65216;51.090;-115.352;2023-05-24T11:31:06;21.07;32.20
76751;SHT31;65216;51.090;-115.352;2023-05-24T11:33:34;21.08;32.19
76751;SHT31;65216;51.090;-115.352;2023-05-24T11:36:07;21.07;32.18
76751;SHT31;65216;51.090;-115.352;2023-05-24T11:38:35;21.06;32.16
76751;SHT31;65216;51.090;-115.352;2023-05-24T11:41:02;21.05;32.15
76751;SHT31;65216;51.090;-115.352;2023-05-24T11:43:31;21.05;32.16
76751;SHT31;65216;51.090;-115.352;2023-05-24T11:46:02;21.05;32.13
76751;SHT31;65216;51.090;-115.352;2023-05-24T11:48:29;21.06;32.13
76751;SHT31;65216;51.090;-115.352;2023-05-24T11:50:55;21.05;32.12
76751;SHT31;65216;51.090;-115.352;2023-05-24T11:53:24;21.05;32.12
76751;SHT31;65216;51.090;-115.352;2023-05-24T11:55:51;21.05;32.13
76751;SHT31;65216;51.090;-115.352;2023-05-24T11:58:23;21.06;32.10
76751;SHT31;65216;51.090;-115.352;2023-05-24T12:01:02;21.07;32.09
76751;SHT31;65216;51.090;-115.352;2023-05-24T12:03:28;21.06;32.07
76751;SHT31;65216;51.090;-115.352;2023-05-24T12:05:57;21.05;32.05
76751;SHT31;65216;51.090;-115.352;2023-05-24T12:08:24;21.06;32.05
76751;SHT31;65216;51.090;-115.352;2023-05-24T12:10:51;21.06;32.01
76751;SHT31;65216;51.090;-115.352;2023-05-24T12:13:22;21.06;32.02
76751;SHT31;65216;51.090;-115.352;2023-05-24T12:15:52;21.05;32.02
76751;SHT31;65216;51.090;-115.352;2023-05-24T12:18:24;21.04;32.06
76751;SHT31;65216;51.090;-115.352;2023-05-24T12:20:51;21.05;32.05
76751;SHT31;65216;51.090;-115.352;2023-05-24T12:23:19;21.05;32.04
76751;SHT31;65216;51.090;-115.352;2023-05-24T12:25:49;21.05;32.01
76751;SHT31;65216;51.090;-115.352;2023-05-24T12:28:19;21.05;32.00
76751;SHT31;65216;51.090;-115.352;2023-05-24T12:30:48;21.05;32.00
76751;SHT31;65216;51.090;-115.352;2023-05-24T12:33:17;21.06;31.97
76751;SHT31;65216;51.090;-115.352;2023-05-24T12:35:46;21.06;31.98
76751;SHT31;65216;51.090;-115.352;2023-05-24T12:38:18;21.05;31.96
76751;SHT31;65216;51.090;-115.352;2023-05-24T12:40:50;21.05;31.98
76751;SHT31;65216;51.090;-115.352;2023-05-24T12:43:23;21.07;31.95
76751;SHT31;65216;51.090;-115.352;2023-05-24T12:45:50;21.06;31.90
76751;SHT31;65216;51.090;-115.352;2023-05-24T12:48:17;21.07;31.90
76751;SHT31;65216;51.090;-115.352;2023-05-24T12:50:45;21.06;31.91
76751;SHT31;65216;51.090;-115.352;2023-05-24T12:53:12;21.06;31.92
76751;SHT31;65216;51.090;-115.352;2023-05-24T12:55:39;21.07;31.91
76751;SHT31;65216;51.090;-115.352;2023-05-24T12:58:06;21.07;31.90
76751;SHT31;65216;51.090;-115.352;2023-05-24T13:00:34;21.07;31.90
76751;SHT31;65216;51.090;-115.352;2023-05-24T13:03:01;21.07;31.91
76751;SHT31;65216;51.090;-115.352;2023-05-24T13:05:30;21.07;31.96
76751;SHT31;65216;51.090;-115.352;2023-05-24T13:08:00;21.07;31.95
76751;SHT31;65216;51.090;-115.352;2023-05-24T13:10:28;21.07;32.00
76751;SHT31;65216;51.090;-115.352;2023-05-24T13:12:55;21.08;31.98
76751;SHT31;65216;51.090;-115.352;2023-05-24T13:15:22;21.08;32.01
76751;SHT31;65216;51.090;-115.352;2023-05-24T13:17:52;21.08;32.00
76751;SHT31;65216;51.090;-115.352;2023-05-24T13:20:23;21.08;32.01
76751;SHT31;65216;51.090;-115.352;2023-05-24T13:22:50;21.09;32.01
76751;SHT31;65216;51.090;-115.352;2023-05-24T13:25:17;21.09;32.01
76751;SHT31;65216;51.090;-115.352;2023-05-24T13:27:46;21.10;32.01
76751;SHT31;65216;51.090;-115.352;2023-05-24T13:30:14;21.11;32.01
76751;SHT31;65216;51.090;-115.352;2023-05-24T13:32:41;21.11;32.03
76751;SHT31;65216;51.090;-115.352;2023-05-24T13:35:08;21.12;32.01
76751;SHT31;65216;51.090;-115.352;2023-05-24T13:37:38;21.14;32.05
76751;SHT31;65216;51.090;-115.352;2023-05-24T13:40:05;21.15;32.05
76751;SHT31;65216;51.090;-115.352;2023-05-24T13:42:35;21.16;32.05
76751;SHT31;65216;51.090;-115.352;2023-05-24T13:45:02;21.17;32.08
76751;SHT31;65216;51.090;-115.352;2023-05-24T13:47:32;21.18;32.10
76751;SHT31;65216;51.090;-115.352;2023-05-24T13:50:02;21.19;32.11
76751;SHT31;65216;51.090;-115.352;2023-05-24T13:52:34;21.19;32.14
76751;SHT31;65216;51.090;-115.352;2023-05-24T13:55:02;21.19;32.18
76751;SHT31;65216;51.090;-115.352;2023-05-24T13:57:30;21.21;32.17
76751;SHT31;65216;51.090;-115.352;2023-05-24T14:00:00;21.22;32.13
76751;SHT31;65216;51.090;-115.352;2023-05-24T14:02:33;21.21;32.17
76751;SHT31;65216;51.090;-115.352;2023-05-24T14:05:03;21.23;32.19
76751;SHT31;65216;51.090;-115.352;2023-05-24T14:07:30;21.24;32.20
76751;SHT31;65216;51.090;-115.352;2023-05-24T14:09:57;21.26;32.25
76751;SHT31;65216;51.090;-115.352;2023-05-24T14:12:24;21.27;32.24
76751;SHT31;65216;51.090;-115.352;2023-05-24T14:14:54;21.26;32.31
76751;SHT31;65216;51.090;-115.352;2023-05-24T14:17:21;21.27;32.30
76751;SHT31;65216;51.090;-115.352;2023-05-24T14:19:48;21.28;32.36
76751;SHT31;65216;51.090;-115.352;2023-05-24T14:22:15;21.29;32.37
76751;SHT31;65216;51.090;-115.352;2023-05-24T14:24:42;21.29;32.40
76751;SHT31;65216;51.090;-115.352;2023-05-24T14:27:12;21.30;32.43
76751;SHT31;65216;51.090;-115.352;2023-05-24T14:29:40;21.30;32.48
76751;SHT31;65216;51.090;-115.352;2023-05-24T14:32:07;21.31;32.50
76751;SHT31;65216;51.090;-115.352;2023-05-24T14:34:35;21.31;32.54
76751;SHT31;65216;51.090;-115.352;2023-05-24T14:37:03;21.30;32.53
76751;SHT31;65216;51.090;-115.352;2023-05-24T14:39:30;21.31;32.57
76751;SHT31;65216;51.090;-115.352;2023-05-24T14:42:00;21.33;32.59
76751;SHT31;65216;51.090;-115.352;2023-05-24T14:44:27;21.33;32.54
76751;SHT31;65216;51.090;-115.352;2023-05-24T14:46:55;21.35;32.51
76751;SHT31;65216;51.090;-115.352;2023-05-24T14:49:22;21.36;32.50
76751;SHT31;65216;51.090;-115.352;2023-05-24T14:51:52;21.36;32.51
76751;SHT31;65216;51.090;-115.352;2023-05-24T14:54:19;21.36;32.51
76751;SHT31;65216;51.090;-115.352;2023-05-24T14:56:51;21.36;32.52
76751;SHT31;65216;51.090;-115.352;2023-05-24T14:59:18;21.35;32.59
76751;SHT31;65216;51.090;-115.352;2023-05-24T15:01:45;21.35;32.56
76751;SHT31;65216;51.090;-115.352;2023-05-24T15:04:12;21.36;32.60
76751;SHT31;65216;51.090;-115.352;2023-05-24T15:06:38;21.37;32.57
76751;SHT31;65216;51.090;-115.352;2023-05-24T15:09:09;21.38;32.60
76751;SHT31;65216;51.090;-115.352;2023-05-24T15:11:36;21.38;32.60
76751;SHT31;65216;51.090;-115.352;2023-05-24T15:14:03;21.41;32.59
76751;SHT31;65216;51.090;-115.352;2023-05-24T15:16:30;21.41;32.57
76751;SHT31;65216;51.090;-115.352;2023-05-24T15:18:57;21.41;32.60
76751;SHT31;65216;51.090;-115.352;2023-05-24T15:21:26;21.41;32.62
76751;SHT31;65216;51.090;-115.352;2023-05-24T15:23:53;21.42;32.61
76751;SHT31;65216;51.090;-115.352;2023-05-24T15:26:23;21.42;32.59
76751;SHT31;65216;51.090;-115.352;2023-05-24T15:28:51;21.42;32.57
76751;SHT31;65216;51.090;-115.352;2023-05-24T15:31:20;21.41;32.54
76751;SHT31;65216;51.090;-115.352;2023-05-24T15:33:47;21.41;32.61